sensor_id;sensor_type;location;lat;lon;timestamp;pressure;altitude;pressure_sealevel;temperature;humidity
39789;BME280;25478;42.626;23.320;2023-07-31T00:01:35;92844.69;;;19.28;100.00
39789;BME280;25478;42.626;23.320;2023-07-31T00:04:00;92855.88;;;19.36;100.00
39789;BME280;25478;42.626;23.320;2023-07-31T00:06:26;92852.06;;;19.24;100.00
39789;BME280;25478;42.626;23.320;2023-07-31T00:08:51;92871.38;;;19.28;100.00
39789;BME280;25478;42.626;23.320;2023-07-31T00:11:16;92868.06;;;19.24;100.00
39789;BME280;25478;42.626;23.320;2023-07-31T00:13:42;92861.25;;;19.23;100.00
39789;BME280;25478;42.626;23.320;2023-07-31T00:16:07;92859.31;;;19.24;100.00
39789;BME280;25478;42.626;23.320;2023-07-31T00:18:33;92860.94;;;19.21;100.00
39789;BME280;25478;42.626;23.320;2023-07-31T00:20:58;92862.13;;;19.20;100.00
39789;BME280;25478;42.626;23.320;2023-07-31T00:23:24;92850.69;;;19.20;100.00
39789;BME280;25478;42.626;23.320;2023-07-31T00:25:49;92854.13;;;19.20;100.00
39789;BME280;25478;42.626;23.320;2023-07-31T00:28:15;92853.69;;;19.22;100.00
39789;BME280;25478;42.626;23.320;2023-07-31T00:30:40;92849.97;;;19.19;100.00
39789;BME280;25478;42.626;23.320;2023-07-31T00:33:06;92841.50;;;19.21;100.00
39789;BME280;25478;42.626;23.320;2023-07-31T00:35:31;92829.22;;;19.23;100.00
39789;BME280;25478;42.626;23.320;2023-07-31T00:37:58;92832.97;;;19.26;100.00
39789;BME280;25478;42.626;23.320;2023-07-31T00:40:24;92819.63;;;19.26;100.00
39789;BME280;25478;42.626;23.320;2023-07-31T00:42:50;92820.78;;;19.25;100.00
39789;BME280;25478;42.626;23.320;2023-07-31T00:45:15;92821.34;;;19.20;100.00
39789;BME280;25478;42.626;23.320;2023-07-31T00:47:41;92823.72;;;19.18;100.00
39789;BME280;25478;42.626;23.320;2023-07-31T00:50:07;92820.84;;;19.12;100.00
39789;BME280;25478;42.626;23.320;2023-07-31T00:52:33;92822.56;;;19.06;100.00
39789;BME280;25478;42.626;23.320;2023-07-31T00:54:58;92827.72;;;19.00;100.00
39789;BME280;25478;42.626;23.320;2023-07-31T00:57:24;92825.47;;;18.99;100.00
39789;BME280;25478;42.626;23.320;2023-07-31T00:59:50;92830.50;;;18.97;100.00
39789;BME280;25478;42.626;23.320;2023-07-31T01:02:16;92806.34;;;18.78;100.00
39789;BME280;25478;42.626;23.320;2023-07-31T01:04:42;92814.88;;;18.86;100.00
39789;BME280;25478;42.626;23.320;2023-07-31T01:07:22;92819.47;;;18.86;100.00
39789;BME280;25478;42.626;23.320;2023-07-31T01:10:15;92821.91;;;18.80;100.00
39789;BME280;25478;42.626;23.320;2023-07-31T01:12:45;92810.31;;;18.74;100.00
39789;BME280;25478;42.626;23.320;2023-07-31T01:15:11;92795.94;;;18.59;100.00
39789;BME280;25478;42.626;23.320;2023-07-31T01:17:42;92811.63;;;18.69;100.00
39789;BME280;25478;42.626;23.320;2023-07-31T01:20:15;92784.34;;;18.52;100.00
39789;BME280;25478;42.626;23.320;2023-07-31T01:25:32;92804.03;;;18.55;100.00
39789;BME280;25478;42.626;23.320;2023-07-31T01:28:10;92805.75;;;18.49;100.00
39789;BME280;25478;42.626;23.320;2023-07-31T01:30:44;92810.56;;;18.41;100.00
39789;BME280;25478;42.626;23.320;2023-07-31T01:33:11;92805.16;;;18.19;100.00
39789;BME280;25478;42.626;23.320;2023-07-31T01:35:37;92807.72;;;18.23;100.00
39789;BME280;25478;42.626;23.320;2023-07-31T01:38:04;92808.59;;;18.20;100.00
39789;BME280;25478;42.626;23.320;2023-07-31T01:40:30;92789.09;;;18.10;100.00
39789;BME280;25478;42.626;23.320;2023-07-31T01:42:55;92802.19;;;18.17;100.00
39789;BME280;25478;42.626;23.320;2023-07-31T01:45:21;92793.25;;;18.11;100.00
39789;BME280;25478;42.626;23.320;2023-07-31T01:47:46;92800.28;;;18.18;100.00
39789;BME280;25478;42.626;23.320;2023-07-31T01:50:12;92798.66;;;18.20;100.00
39789;BME280;25478;42.626;23.320;2023-07-31T01:52:38;92811.47;;;18.25;100.00
39789;BME280;25478;42.626;23.320;2023-07-31T01:55:03;92809.41;;;18.29;100.00
39789;BME280;25478;42.626;23.320;2023-07-31T01:57:29;92804.75;;;18.34;100.00
39789;BME280;25478;42.626;23.320;2023-07-31T01:59:55;92805.78;;;18.36;100.00
39789;BME280;25478;42.626;23.320;2023-07-31T02:02:21;92803.13;;;18.36;100.00
39789;BME280;25478;42.626;23.320;2023-07-31T02:04:48;92805.34;;;18.38;100.00
39789;BME280;25478;42.626;23.320;2023-07-31T02:07:14;92804.09;;;18.42;100.00
39789;BME280;25478;42.626;23.320;2023-07-31T02:09:39;92808.22;;;18.43;100.00
39789;BME280;25478;42.626;23.320;2023-07-31T02:12:05;92811.94;;;18.46;100.00
39789;BME280;25478;42.626;23.320;2023-07-31T02:14:30;92814.63;;;18.46;100.00
39789;BME280;25478;42.626;23.320;2023-07-31T02:16:56;92809.28;;;18.46;100.00
39789;BME280;25478;42.626;23.320;2023-07-31T02:19:21;92819.50;;;18.47;100.00
39789;BME280;25478;42.626;23.320;2023-07-31T02:21:47;92813.00;;;18.48;100.00
39789;BME280;25478;42.626;23.320;2023-07-31T02:24:12;92820.59;;;18.50;100.00
39789;BME280;25478;42.626;23.320;2023-07-31T02:26:38;92820.78;;;18.55;100.00
39789;BME280;25478;42.626;23.320;2023-07-31T02:29:03;92824.50;;;18.58;100.00
39789;BME280;25478;42.626;23.320;2023-07-31T02:31:29;92810.97;;;18.65;100.00
39789;BME280;25478;42.626;23.320;2023-07-31T02:33:54;92813.09;;;18.70;100.00
39789;BME280;25478;42.626;23.320;2023-07-31T02:36:20;92817.31;;;18.80;100.00
39789;BME280;25478;42.626;23.320;2023-07-31T02:38:46;92803.19;;;18.71;100.00
39789;BME280;25478;42.626;23.320;2023-07-31T02:41:11;92819.16;;;18.83;100.00
39789;BME280;25478;42.626;23.320;2023-07-31T02:43:37;92815.47;;;18.90;100.00
39789;BME280;25478;42.626;23.320;2023-07-31T02:46:02;92810.16;;;18.90;100.00
39789;BME280;25478;42.626;23.320;2023-07-31T02:48:28;92820.06;;;18.90;100.00
39789;BME280;25478;42.626;23.320;2023-07-31T02:50:53;92819.22;;;18.93;100.00
39789;BME280;25478;42.626;23.320;2023-07-31T02:53:19;92824.44;;;18.96;100.00
39789;BME280;25478;42.626;23.320;2023-07-31T02:55:44;92830.41;;;19.00;100.00
39789;BME280;25478;42.626;23.320;2023-07-31T02:58:10;92824.88;;;18.95;100.00
39789;BME280;25478;42.626;23.320;2023-07-31T03:00:35;92841.38;;;19.02;100.00
39789;BME280;25478;42.626;23.320;2023-07-31T03:03:01;92836.66;;;19.06;100.00
39789;BME280;25478;42.626;23.320;2023-07-31T03:05:27;92844.97;;;19.08;100.00
39789;BME280;25478;42.626;23.320;2023-07-31T03:07:52;92843.38;;;19.11;100.00
39789;BME280;25478;42.626;23.320;2023-07-31T03:10:18;92844.84;;;19.12;100.00
39789;BME280;25478;42.626;23.320;2023-07-31T03:12:46;92824.00;;;18.98;100.00
39789;BME280;25478;42.626;23.320;2023-07-31T03:15:13;92842.50;;;19.14;100.00
39789;BME280;25478;42.626;23.320;2023-07-31T03:17:38;92855.28;;;19.19;100.00
39789;BME280;25478;42.626;23.320;2023-07-31T03:20:04;92854.13;;;19.20;100.00
39789;BME280;25478;42.626;23.320;2023-07-31T03:22:30;92851.75;;;19.22;100.00
39789;BME280;25478;42.626;23.320;2023-07-31T03:24:56;92811.72;;;19.00;100.00
39789;BME280;25478;42.626;23.320;2023-07-31T03:27:21;92854.19;;;19.29;100.00
39789;BME280;25478;42.626;23.320;2023-07-31T03:29:47;92840.47;;;19.18;100.00
39789;BME280;25478;42.626;23.320;2023-07-31T03:32:12;92856.84;;;19.29;100.00
39789;BME280;25478;42.626;23.320;2023-07-31T03:34:38;92862.31;;;19.26;100.00
39789;BME280;25478;42.626;23.320;2023-07-31T03:37:05;92853.81;;;19.18;100.00
39789;BME280;25478;42.626;23.320;2023-07-31T03:39:30;92867.66;;;19.26;100.00
39789;BME280;25478;42.626;23.320;2023-07-31T03:41:56;92864.22;;;19.25;100.00
39789;BME280;25478;42.626;23.320;2023-07-31T03:44:21;92855.91;;;19.23;100.00
39789;BME280;25478;42.626;23.320;2023-07-31T03:46:47;92871.06;;;19.26;100.00
39789;BME280;25478;42.626;23.320;2023-07-31T03:49:12;92869.13;;;19.27;100.00
39789;BME280;25478;42.626;23.320;2023-07-31T03:51:38;92868.41;;;19.26;100.00
39789;BME280;25478;42.626;23.320;2023-07-31T03:54:03;92868.94;;;19.21;100.00
39789;BME280;25478;42.626;23.320;2023-07-31T03:56:29;92872.66;;;19.24;100.00
39789;BME280;25478;42.626;23.320;2023-07-31T03:58:54;92856.28;;;19.12;100.00
39789;BME280;25478;42.626;23.320;2023-07-31T04:01:20;92869.69;;;19.22;100.00
39789;BME280;25478;42.626;23.320;2023-07-31T04:03:45;92882.28;;;19.21;100.00
39789;BME280;25478;42.626;23.320;2023-07-31T04:06:11;92881.84;;;19.23;100.00
39789;BME280;25478;42.626;23.320;2023-07-31T04:08:36;92874.28;;;19.21;100.00
39789;BME280;25478;42.626;23.320;2023-07-31T04:11:02;92876.94;;;19.21;100.00
39789;BME280;25478;42.626;23.320;2023-07-31T04:13:29;92863.97;;;19.10;100.00
39789;BME280;25478;42.626;23.320;2023-07-31T04:15:54;92876.28;;;19.30;100.00
39789;BME280;25478;42.626;23.320;2023-07-31T04:18:20;92891.09;;;19.31;100.00
39789;BME280;25478;42.626;23.320;2023-07-31T04:20:45;92877.00;;;19.30;100.00
39789;BME280;25478;42.626;23.320;2023-07-31T04:23:11;92886.72;;;19.37;100.00
39789;BME280;25478;42.626;23.320;2023-07-31T04:25:37;92889.69;;;19.39;100.00
39789;BME280;25478;42.626;23.320;2023-07-31T04:28:02;92877.75;;;19.31;100.00
39789;BME280;25478;42.626;23.320;2023-07-31T04:30:28;92891.91;;;19.40;100.00
39789;BME280;25478;42.626;23.320;2023-07-31T04:32:53;92865.00;;;19.26;100.00
39789;BME280;25478;42.626;23.320;2023-07-31T04:35:19;92891.16;;;19.40;100.00
39789;BME280;25478;42.626;23.320;2023-07-31T04:37:44;92890.19;;;19.47;100.00
39789;BME280;25478;42.626;23.320;2023-07-31T04:40:14;92885.91;;;19.49;100.00
39789;BME280;25478;42.626;23.320;2023-07-31T04:42:39;92891.13;;;19.53;100.00
39789;BME280;25478;42.626;23.320;2023-07-31T04:45:05;92893.59;;;19.60;100.00
39789;BME280;25478;42.626;23.320;2023-07-31T04:47:31;92893.59;;;19.60;100.00
39789;BME280;25478;42.626;23.320;2023-07-31T04:49:56;92889.84;;;19.57;100.00
39789;BME280;25478;42.626;23.320;2023-07-31T04:52:21;92897.31;;;19.62;100.00
39789;BME280;25478;42.626;23.320;2023-07-31T04:54:47;92886.63;;;19.62;100.00
39789;BME280;25478;42.626;23.320;2023-07-31T04:57:13;92893.31;;;19.67;100.00
39789;BME280;25478;42.626;23.320;2023-07-31T04:59:39;92891.56;;;19.73;99.82
39789;BME280;25478;42.626;23.320;2023-07-31T05:02:05;92888.69;;;19.89;98.70
39789;BME280;25478;42.626;23.320;2023-07-31T05:04:30;92879.44;;;20.03;97.62
39789;BME280;25478;42.626;23.320;2023-07-31T05:06:56;92874.72;;;20.16;97.06
39789;BME280;25478;42.626;23.320;2023-07-31T05:09:21;92878.06;;;20.30;96.39
39789;BME280;25478;42.626;23.320;2023-07-31T05:11:47;92876.16;;;20.39;95.99
39789;BME280;25478;42.626;23.320;2023-07-31T05:14:12;92875.34;;;20.51;96.01
39789;BME280;25478;42.626;23.320;2023-07-31T05:16:38;92879.38;;;20.65;95.35
39789;BME280;25478;42.626;23.320;2023-07-31T05:19:04;92871.53;;;20.71;95.07
39789;BME280;25478;42.626;23.320;2023-07-31T05:21:29;92867.69;;;20.81;93.56
39789;BME280;25478;42.626;23.320;2023-07-31T05:23:55;92864.13;;;20.93;92.77
39789;BME280;25478;42.626;23.320;2023-07-31T05:26:20;92877.09;;;21.22;92.07
39789;BME280;25478;42.626;23.320;2023-07-31T05:28:46;92872.78;;;21.43;91.31
39789;BME280;25478;42.626;23.320;2023-07-31T05:31:11;92853.75;;;21.50;89.84
39789;BME280;25478;42.626;23.320;2023-07-31T05:33:37;92878.25;;;21.95;88.49
39789;BME280;25478;42.626;23.320;2023-07-31T05:36:02;92876.06;;;22.26;87.25
39789;BME280;25478;42.626;23.320;2023-07-31T05:38:28;92870.06;;;22.40;86.53
39789;BME280;25478;42.626;23.320;2023-07-31T05:40:53;92877.41;;;22.64;85.88
39789;BME280;25478;42.626;23.320;2023-07-31T05:43:18;92872.84;;;22.88;84.90
39789;BME280;25478;42.626;23.320;2023-07-31T05:45:44;92863.84;;;23.15;82.95
39789;BME280;25478;42.626;23.320;2023-07-31T05:48:10;92872.03;;;23.36;81.05
39789;BME280;25478;42.626;23.320;2023-07-31T05:50:35;92860.84;;;23.37;79.51
39789;BME280;25478;42.626;23.320;2023-07-31T05:53:02;92868.09;;;23.46;78.39
39789;BME280;25478;42.626;23.320;2023-07-31T05:55:27;92869.16;;;23.24;78.96
39789;BME280;25478;42.626;23.320;2023-07-31T05:57:53;92862.25;;;23.09;79.85
39789;BME280;25478;42.626;23.320;2023-07-31T06:00:19;92868.84;;;23.08;79.70
39789;BME280;25478;42.626;23.320;2023-07-31T06:02:46;92867.69;;;23.23;78.76
39789;BME280;25478;42.626;23.320;2023-07-31T06:05:12;92875.66;;;23.33;78.40
39789;BME280;25478;42.626;23.320;2023-07-31T06:07:38;92873.56;;;23.51;77.73
39789;BME280;25478;42.626;23.320;2023-07-31T06:10:04;92875.88;;;23.58;76.58
39789;BME280;25478;42.626;23.320;2023-07-31T06:12:34;92886.84;;;23.70;76.33
39789;BME280;25478;42.626;23.320;2023-07-31T06:15:01;92876.50;;;23.77;74.97
39789;BME280;25478;42.626;23.320;2023-07-31T06:17:27;92887.25;;;23.77;74.53
39789;BME280;25478;42.626;23.320;2023-07-31T06:19:53;92890.97;;;23.95;73.95
39789;BME280;25478;42.626;23.320;2023-07-31T06:22:19;92889.13;;;24.15;71.95
39789;BME280;25478;42.626;23.320;2023-07-31T06:24:44;92896.25;;;24.19;72.57
39789;BME280;25478;42.626;23.320;2023-07-31T06:27:10;92890.22;;;24.24;71.76
39789;BME280;25478;42.626;23.320;2023-07-31T06:29:36;92889.47;;;24.38;71.02
39789;BME280;25478;42.626;23.320;2023-07-31T06:32:01;92889.56;;;24.43;70.45
39789;BME280;25478;42.626;23.320;2023-07-31T06:34:27;92885.84;;;24.56;68.51
39789;BME280;25478;42.626;23.320;2023-07-31T06:36:52;92872.38;;;24.56;68.45
39789;BME280;25478;42.626;23.320;2023-07-31T06:39:18;92882.09;;;24.68;67.97
39789;BME280;25478;42.626;23.320;2023-07-31T06:41:43;92885.03;;;24.50;67.42
39789;BME280;25478;42.626;23.320;2023-07-31T06:44:10;92872.59;;;24.37;66.92
39789;BME280;25478;42.626;23.320;2023-07-31T06:46:36;92874.84;;;24.39;66.62
39789;BME280;25478;42.626;23.320;2023-07-31T06:49:02;92874.84;;;24.39;66.43
39789;BME280;25478;42.626;23.320;2023-07-31T06:51:27;92885.56;;;24.54;67.10
39789;BME280;25478;42.626;23.320;2023-07-31T06:53:53;92892.94;;;24.38;67.03
39789;BME280;25478;42.626;23.320;2023-07-31T06:56:18;92885.47;;;24.04;68.30
39789;BME280;25478;42.626;23.320;2023-07-31T06:58:44;92883.22;;;23.58;69.57
39789;BME280;25478;42.626;23.320;2023-07-31T07:01:09;92900.81;;;23.59;70.42
39789;BME280;25478;42.626;23.320;2023-07-31T07:03:35;92897.91;;;23.72;70.66
39789;BME280;25478;42.626;23.320;2023-07-31T07:06:00;92890.94;;;23.65;71.60
39789;BME280;25478;42.626;23.320;2023-07-31T07:08:26;92894.19;;;23.69;72.10
39789;BME280;25478;42.626;23.320;2023-07-31T07:10:51;92897.38;;;23.97;70.54
39789;BME280;25478;42.626;23.320;2023-07-31T07:13:17;92896.91;;;24.13;69.33
39789;BME280;25478;42.626;23.320;2023-07-31T07:15:48;92885.13;;;24.40;68.49
39789;BME280;25478;42.626;23.320;2023-07-31T07:18:14;92891.38;;;24.67;67.52
39789;BME280;25478;42.626;23.320;2023-07-31T07:20:39;92881.88;;;24.71;67.09
39789;BME280;25478;42.626;23.320;2023-07-31T07:23:05;92877.88;;;24.82;64.94
39789;BME280;25478;42.626;23.320;2023-07-31T07:25:31;92893.06;;;24.64;65.27
39789;BME280;25478;42.626;23.320;2023-07-31T07:27:56;92892.03;;;24.62;66.06
39789;BME280;25478;42.626;23.320;2023-07-31T07:30:22;92888.47;;;24.70;66.69
39789;BME280;25478;42.626;23.320;2023-07-31T07:32:50;92881.19;;;24.91;65.36
39789;BME280;25478;42.626;23.320;2023-07-31T07:35:15;92898.56;;;24.90;65.19
39789;BME280;25478;42.626;23.320;2023-07-31T07:37:41;92898.88;;;24.78;64.69
39789;BME280;25478;42.626;23.320;2023-07-31T07:40:07;92889.22;;;24.71;64.43
39789;BME280;25478;42.626;23.320;2023-07-31T07:42:33;92898.88;;;24.63;65.02
39789;BME280;25478;42.626;23.320;2023-07-31T07:44:58;92901.75;;;24.39;65.44
39789;BME280;25478;42.626;23.320;2023-07-31T07:47:24;92911.06;;;24.29;65.96
39789;BME280;25478;42.626;23.320;2023-07-31T07:49:49;92907.56;;;24.37;65.58
39789;BME280;25478;42.626;23.320;2023-07-31T07:52:14;92898.09;;;24.42;65.25
39789;BME280;25478;42.626;23.320;2023-07-31T07:54:40;92909.81;;;24.39;65.73
39789;BME280;25478;42.626;23.320;2023-07-31T07:57:05;92908.00;;;24.21;66.62
39789;BME280;25478;42.626;23.320;2023-07-31T07:59:31;92913.50;;;24.12;67.47
39789;BME280;25478;42.626;23.320;2023-07-31T08:01:56;92921.81;;;24.29;67.24
39789;BME280;25478;42.626;23.320;2023-07-31T08:04:22;92912.66;;;24.50;65.58
39789;BME280;25478;42.626;23.320;2023-07-31T08:06:48;92909.56;;;24.72;64.89
39789;BME280;25478;42.626;23.320;2023-07-31T08:09:14;92903.66;;;24.88;65.79
39789;BME280;25478;42.626;23.320;2023-07-31T08:11:39;92893.22;;;24.76;64.94
39789;BME280;25478;42.626;23.320;2023-07-31T08:14:05;92907.63;;;24.73;65.17
39789;BME280;25478;42.626;23.320;2023-07-31T08:16:30;92908.81;;;24.71;64.64
39789;BME280;25478;42.626;23.320;2023-07-31T08:18:56;92907.53;;;24.67;63.84
39789;BME280;25478;42.626;23.320;2023-07-31T08:21:22;92911.44;;;24.51;65.87
39789;BME280;25478;42.626;23.320;2023-07-31T08:23:48;92912.66;;;24.65;64.98
39789;BME280;25478;42.626;23.320;2023-07-31T08:26:17;92913.91;;;24.69;64.14
39789;BME280;25478;42.626;23.320;2023-07-31T08:28:43;92913.66;;;24.67;64.52
39789;BME280;25478;42.626;23.320;2023-07-31T08:31:09;92918.41;;;24.58;64.31
39789;BME280;25478;42.626;23.320;2023-07-31T08:33:34;92910.63;;;24.45;64.77
39789;BME280;25478;42.626;23.320;2023-07-31T08:35:59;92923.25;;;24.39;65.17
39789;BME280;25478;42.626;23.320;2023-07-31T08:38:26;92901.06;;;24.29;64.86
39789;BME280;25478;42.626;23.320;2023-07-31T08:40:51;92912.50;;;24.39;65.17
39789;BME280;25478;42.626;23.320;2023-07-31T08:43:18;92912.16;;;24.66;65.44
39789;BME280;25478;42.626;23.320;2023-07-31T08:45:46;92926.28;;;24.96;63.23
39789;BME280;25478;42.626;23.320;2023-07-31T08:48:12;92921.38;;;24.95;62.15
39789;BME280;25478;42.626;23.320;2023-07-31T08:50:38;92902.97;;;24.73;61.98
39789;BME280;25478;42.626;23.320;2023-07-31T08:53:04;92910.09;;;24.76;63.02
39789;BME280;25478;42.626;23.320;2023-07-31T08:55:32;92904.81;;;24.82;62.01
39789;BME280;25478;42.626;23.320;2023-07-31T08:57:58;92926.13;;;24.85;61.88
39789;BME280;25478;42.626;23.320;2023-07-31T09:00:24;92927.09;;;24.67;62.15
39789;BME280;25478;42.626;23.320;2023-07-31T09:03:13;92925.38;;;24.50;63.39
39789;BME280;25478;42.626;23.320;2023-07-31T09:05:42;92928.44;;;24.42;63.84
39789;BME280;25478;42.626;23.320;2023-07-31T09:08:09;92925.47;;;24.26;62.53
39789;BME280;25478;42.626;23.320;2023-07-31T09:10:35;92925.28;;;24.00;63.38
39789;BME280;25478;42.626;23.320;2023-07-31T09:13:02;92922.31;;;23.98;63.63
39789;BME280;25478;42.626;23.320;2023-07-31T09:15:28;92915.38;;;24.06;64.07
39789;BME280;25478;42.626;23.320;2023-07-31T09:18:01;92911.19;;;24.34;65.02
39789;BME280;25478;42.626;23.320;2023-07-31T09:20:26;92916.59;;;24.69;62.84
39789;BME280;25478;42.626;23.320;2023-07-31T09:22:52;92915.38;;;24.85;60.05
39789;BME280;25478;42.626;23.320;2023-07-31T09:25:19;92909.50;;;24.87;60.53
39789;BME280;25478;42.626;23.320;2023-07-31T09:27:52;92911.53;;;24.92;60.22
39789;BME280;25478;42.626;23.320;2023-07-31T09:30:18;92890.66;;;24.87;59.81
39789;BME280;25478;42.626;23.320;2023-07-31T09:32:45;92899.16;;;25.00;60.00
39789;BME280;25478;42.626;23.320;2023-07-31T09:35:22;92890.72;;;25.07;60.22
39789;BME280;25478;42.626;23.320;2023-07-31T09:37:52;92900.22;;;25.23;59.83
39789;BME280;25478;42.626;23.320;2023-07-31T09:43:01;92891.84;;;25.62;58.56
39789;BME280;25478;42.626;23.320;2023-07-31T09:45:27;92889.75;;;25.71;58.58
39789;BME280;25478;42.626;23.320;2023-07-31T09:47:54;92886.28;;;25.91;58.16
39789;BME280;25478;42.626;23.320;2023-07-31T09:50:21;92874.78;;;25.96;57.13
39789;BME280;25478;42.626;23.320;2023-07-31T09:52:54;92881.53;;;26.06;56.17
39789;BME280;25478;42.626;23.320;2023-07-31T09:55:20;92865.97;;;25.96;56.96
39789;BME280;25478;42.626;23.320;2023-07-31T09:57:46;92877.16;;;26.15;56.21
39789;BME280;25478;42.626;23.320;2023-07-31T10:00:14;92854.63;;;26.18;56.49
39789;BME280;25478;42.626;23.320;2023-07-31T10:02:41;92865.28;;;26.32;56.65
39789;BME280;25478;42.626;23.320;2023-07-31T10:05:07;92880.13;;;26.43;55.93
39789;BME280;25478;42.626;23.320;2023-07-31T10:07:37;92861.38;;;26.33;55.50
39789;BME280;25478;42.626;23.320;2023-07-31T10:10:07;92875.75;;;26.51;55.48
39789;BME280;25478;42.626;23.320;2023-07-31T10:12:35;92883.44;;;26.63;55.28
39789;BME280;25478;42.626;23.320;2023-07-31T10:15:02;92885.28;;;26.83;53.70
39789;BME280;25478;42.626;23.320;2023-07-31T10:17:29;92878.94;;;26.92;53.03
39789;BME280;25478;42.626;23.320;2023-07-31T10:19:56;92877.97;;;26.95;52.03
39789;BME280;25478;42.626;23.320;2023-07-31T10:22:23;92874.78;;;26.91;49.43
39789;BME280;25478;42.626;23.320;2023-07-31T10:24:50;92877.19;;;26.89;46.76
39789;BME280;25478;42.626;23.320;2023-07-31T10:27:15;92868.34;;;26.83;46.88
39789;BME280;25478;42.626;23.320;2023-07-31T10:29:43;92865.41;;;26.86;46.68
39789;BME280;25478;42.626;23.320;2023-07-31T10:32:10;92879.41;;;26.90;44.93
39789;BME280;25478;42.626;23.320;2023-07-31T10:34:39;92876.75;;;26.96;44.84
39789;BME280;25478;42.626;23.320;2023-07-31T10:37:24;92863.81;;;27.06;44.85
39789;BME280;25478;42.626;23.320;2023-07-31T10:40:05;92870.47;;;27.10;44.89
39789;BME280;25478;42.626;23.320;2023-07-31T10:42:56;92864.47;;;26.95;44.32
39789;BME280;25478;42.626;23.320;2023-07-31T10:48:00;92862.31;;;26.62;44.58
39789;BME280;25478;42.626;23.320;2023-07-31T10:50:27;92852.97;;;26.57;44.96
39789;BME280;25478;42.626;23.320;2023-07-31T10:52:54;92862.47;;;26.47;45.50
39789;BME280;25478;42.626;23.320;2023-07-31T10:55:40;92853.91;;;26.23;45.78
39789;BME280;25478;42.626;23.320;2023-07-31T10:58:09;92854.81;;;26.08;45.75
39789;BME280;25478;42.626;23.320;2023-07-31T11:00:38;92850.34;;;26.05;45.89
39789;BME280;25478;42.626;23.320;2023-07-31T11:03:12;92846.34;;;25.95;45.89
39789;BME280;25478;42.626;23.320;2023-07-31T11:08:17;92845.81;;;25.65;45.77
39789;BME280;25478;42.626;23.320;2023-07-31T11:10:44;92838.72;;;25.68;45.65
39789;BME280;25478;42.626;23.320;2023-07-31T11:13:10;92842.09;;;25.83;45.57
39789;BME280;25478;42.626;23.320;2023-07-31T11:15:36;92836.59;;;26.03;45.25
39789;BME280;25478;42.626;23.320;2023-07-31T11:18:02;92837.53;;;26.26;45.09
39789;BME280;25478;42.626;23.320;2023-07-31T11:20:37;92847.59;;;26.57;43.59
39789;BME280;25478;42.626;23.320;2023-07-31T11:23:06;92848.19;;;26.78;43.15
39789;BME280;25478;42.626;23.320;2023-07-31T11:25:32;92819.00;;;26.82;41.85
39789;BME280;25478;42.626;23.320;2023-07-31T11:28:05;92824.72;;;27.01;41.65
39789;BME280;25478;42.626;23.320;2023-07-31T11:30:31;92831.97;;;27.32;41.43
39789;BME280;25478;42.626;23.320;2023-07-31T11:32:57;92838.19;;;27.49;40.46
39789;BME280;25478;42.626;23.320;2023-07-31T11:35:22;92834.50;;;27.53;40.29
39789;BME280;25478;42.626;23.320;2023-07-31T11:37:48;92840.41;;;27.51;39.75
39789;BME280;25478;42.626;23.320;2023-07-31T11:40:14;92839.88;;;27.47;39.62
39789;BME280;25478;42.626;23.320;2023-07-31T11:42:40;92839.13;;;27.41;39.32
39789;BME280;25478;42.626;23.320;2023-07-31T11:45:08;92825.38;;;27.33;40.16
39789;BME280;25478;42.626;23.320;2023-07-31T11:47:35;92840.28;;;27.23;39.73
39789;BME280;25478;42.626;23.320;2023-07-31T11:50:03;92821.50;;;26.97;40.85
39789;BME280;25478;42.626;23.320;2023-07-31T11:52:37;92829.56;;;26.86;41.86
39789;BME280;25478;42.626;23.320;2023-07-31T11:55:04;92827.75;;;26.72;42.18
39789;BME280;25478;42.626;23.320;2023-07-31T11:57:31;92827.03;;;26.71;42.61
39789;BME280;25478;42.626;23.320;2023-07-31T11:59:57;92818.44;;;26.73;42.85
39789;BME280;25478;42.626;23.320;2023-07-31T12:02:23;92817.00;;;26.77;42.24
39789;BME280;25478;42.626;23.320;2023-07-31T12:04:49;92821.69;;;26.82;42.57
39789;BME280;25478;42.626;23.320;2023-07-31T12:07:14;92812.38;;;26.83;42.11
39789;BME280;25478;42.626;23.320;2023-07-31T12:09:56;92824.47;;;26.99;41.73
39789;BME280;25478;42.626;23.320;2023-07-31T12:12:23;92825.97;;;27.06;41.04
39789;BME280;25478;42.626;23.320;2023-07-31T12:14:49;92810.06;;;27.13;41.15
39789;BME280;25478;42.626;23.320;2023-07-31T12:17:17;92812.03;;;27.24;40.98
39789;BME280;25478;42.626;23.320;2023-07-31T12:19:44;92806.41;;;27.22;40.31
39789;BME280;25478;42.626;23.320;2023-07-31T12:22:16;92810.84;;;27.31;39.89
39789;BME280;25478;42.626;23.320;2023-07-31T12:24:44;92812.59;;;27.34;40.44
39789;BME280;25478;42.626;23.320;2023-07-31T12:27:11;92805.47;;;27.36;40.07
39789;BME280;25478;42.626;23.320;2023-07-31T12:29:38;92804.72;;;27.36;40.24
39789;BME280;25478;42.626;23.320;2023-07-31T12:32:17;92800.06;;;27.42;41.07
39789;BME280;25478;42.626;23.320;2023-07-31T12:34:43;92811.41;;;27.52;40.74
39789;BME280;25478;42.626;23.320;2023-07-31T12:37:09;92808.91;;;27.48;40.06
39789;BME280;25478;42.626;23.320;2023-07-31T12:39:34;92800.56;;;27.35;40.92
39789;BME280;25478;42.626;23.320;2023-07-31T12:42:00;92812.09;;;27.35;41.75
39789;BME280;25478;42.626;23.320;2023-07-31T12:44:25;92803.22;;;27.29;42.03
39789;BME280;25478;42.626;23.320;2023-07-31T12:46:51;92804.91;;;27.10;41.48
39789;BME280;25478;42.626;23.320;2023-07-31T12:49:16;92807.22;;;26.85;42.07
39789;BME280;25478;42.626;23.320;2023-07-31T12:51:41;92802.72;;;26.65;42.24
39789;BME280;25478;42.626;23.320;2023-07-31T12:54:07;92806.84;;;26.61;42.02